Time;durP1;ratioP1;P1;durP2;ratioP2;P2;SDS_P1;SDS_P2;PMS_P1;PMS_P2;Temp;Humidity;BMP_temperature;BMP_pressure;BME280_temperature;BME280_humidity;BME280_pressure;Samples;Min_cycle;Max_cycle;Signal;HPM_P1;HPM_P2
2020/12/06 00:01:02;;;;;;;26.67;13.50;;;2.80;99.90;;;;;;5114028;28;20036;-78
2020/12/06 00:03:28;;;;;;;25.80;11.95;;;2.90;99.90;;;;;;5116156;28;20039;-78
2020/12/06 00:05:54;;;;;;;26.58;13.38;;;2.90;99.90;;;;;;5116280;28;20039;-78
2020/12/06 00:08:20;;;;;;;23.63;12.35;;;3.00;99.90;;;;;;5116190;27;20047;-79
2020/12/06 00:10:46;;;;;;;24.25;12.85;;;2.70;99.90;;;;;;5114255;28;20099;-78
2020/12/06 00:13:12;;;;;;;26.58;13.45;;;2.20;99.90;;;;;;5115096;28;20035;-78
2020/12/06 00:15:37;;;;;;;23.85;12.90;;;2.20;99.90;;;;;;5113818;28;20134;-78
2020/12/06 00:18:03;;;;;;;27.92;14.48;;;2.10;99.90;;;;;;5113028;28;20039;-78
2020/12/06 00:20:29;;;;;;;28.40;13.63;;;2.10;99.90;;;;;;5113942;28;20061;-78
2020/12/06 00:22:55;;;;;;;26.38;12.70;;;2.20;99.90;;;;;;5114267;28;20483;-78
2020/12/06 00:25:21;;;;;;;23.50;11.40;;;2.30;99.90;;;;;;5114221;28;20039;-77
2020/12/06 00:27:46;;;;;;;29.77;13.90;;;2.40;99.90;;;;;;5113444;28;20039;-78
2020/12/06 00:30:12;;;;;;;30.42;14.70;;;2.50;99.90;;;;;;5112280;28;20066;-78
2020/12/06 00:32:38;;;;;;;31.35;14.68;;;2.50;99.90;;;;;;5114005;28;20492;-78
2020/12/06 00:35:04;;;;;;;29.23;14.88;;;2.60;99.90;;;;;;5114219;28;20035;-79
2020/12/06 00:37:30;;;;;;;27.35;12.45;;;2.70;99.90;;;;;;5114731;28;20122;-78
2020/12/06 00:39:56;;;;;;;25.60;12.98;;;2.70;99.90;;;;;;5114564;28;20078;-79
2020/12/06 00:42:22;;;;;;;23.48;11.68;;;2.70;99.90;;;;;;5115173;28;20039;-78
2020/12/06 00:44:48;;;;;;;26.48;12.52;;;2.70;99.90;;;;;;5113336;28;20043;-79
2020/12/06 00:47:13;;;;;;;22.10;11.93;;;2.90;99.90;;;;;;5114648;28;20071;-78
2020/12/06 00:49:39;;;;;;;21.15;11.93;;;2.90;99.90;;;;;;5113492;28;20399;-78
2020/12/06 00:52:04;;;;;;;23.05;11.38;;;2.90;99.90;;;;;;5112952;28;20069;-78
2020/12/06 00:54:30;;;;;;;23.73;11.10;;;2.90;99.90;;;;;;5112856;28;20035;-76
2020/12/06 00:56:57;;;;;;;25.20;11.93;;;2.90;99.90;;;;;;5113971;28;20039;-77
2020/12/06 00:59:23;;;;;;;28.27;11.82;;;3.00;99.90;;;;;;5112931;28;20043;-77
2020/12/06 01:01:49;;;;;;;21.98;11.68;;;3.00;99.90;;;;;;5114078;28;20105;-78
2020/12/06 01:04:14;;;;;;;32.05;12.60;;;3.00;99.90;;;;;;5114699;28;20043;-78
2020/12/06 01:06:40;;;;;;;24.58;11.65;;;3.00;99.90;;;;;;5113364;28;20450;-76
2020/12/06 01:09:06;;;;;;;25.23;12.43;;;3.00;99.90;;;;;;5113476;28;20075;-78
2020/12/06 01:11:31;;;;;;;22.92;11.38;;;2.90;99.90;;;;;;5114497;28;20160;-78
2020/12/06 01:13:58;;;;;;;22.38;10.90;;;2.90;99.90;;;;;;5112483;28;20039;-78
2020/12/06 01:16:23;;;;;;;25.42;11.18;;;2.90;99.90;;;;;;5113428;28;20111;-77
2020/12/06 01:18:49;;;;;;;22.55;10.93;;;3.00;99.90;;;;;;5095825;28;20444;-78
2020/12/06 01:21:15;;;;;;;17.33;9.73;;;3.00;99.90;;;;;;5093128;28;20048;-77
2020/12/06 01:23:40;;;;;;;20.45;10.20;;;3.00;99.90;;;;;;5092602;28;20139;-78
2020/12/06 01:26:09;;;;;;;22.13;11.95;;;3.10;99.90;;;;;;5092320;28;20064;-78
2020/12/06 01:28:35;;;;;;;21.60;10.43;;;3.10;99.90;;;;;;5093178;28;20054;-78
2020/12/06 01:31:01;;;;;;;21.17;10.80;;;3.10;99.90;;;;;;5105778;28;20135;-78
2020/12/06 01:33:27;;;;;;;17.95;10.07;;;3.20;99.90;;;;;;5113762;28;20051;-78
2020/12/06 01:35:53;;;;;;;20.50;10.68;;;3.20;99.90;;;;;;5112359;28;20035;-78
2020/12/06 01:38:18;;;;;;;23.13;11.73;;;3.20;99.90;;;;;;5112318;28;20477;-78
2020/12/06 01:40:44;;;;;;;20.77;10.85;;;3.30;99.90;;;;;;5113011;28;20040;-78
2020/12/06 01:43:10;;;;;;;22.48;10.68;;;3.30;99.90;;;;;;5115641;28;20032;-78
2020/12/06 01:45:36;;;;;;;21.25;10.45;;;3.30;99.90;;;;;;5114690;28;20039;-78
2020/12/06 01:48:07;;;;;;;19.58;10.70;;;3.30;99.90;;;;;;5117525;27;20036;-78
2020/12/06 01:50:33;;;;;;;19.88;10.00;;;3.40;99.90;;;;;;5116896;28;20035;-78
2020/12/06 01:52:58;;;;;;;21.77;10.93;;;3.40;99.90;;;;;;5115792;28;20055;-78
2020/12/06 01:55:24;;;;;;;23.65;10.85;;;3.40;99.90;;;;;;5118074;27;20118;-78
2020/12/06 01:57:50;;;;;;;19.40;10.25;;;3.40;99.90;;;;;;5118252;28;20039;-78
2020/12/06 02:00:16;;;;;;;19.83;9.70;;;3.40;99.90;;;;;;5115708;28;20126;-78
2020/12/06 02:02:42;;;;;;;20.02;9.80;;;3.50;99.90;;;;;;5115480;28;20036;-78
2020/12/06 02:05:08;;;;;;;16.90;8.60;;;3.50;99.90;;;;;;5117709;28;20043;-79
2020/12/06 02:07:35;;;;;;;19.13;9.40;;;3.50;99.90;;;;;;5117432;28;20485;-78
2020/12/06 02:10:01;;;;;;;16.92;9.60;;;3.60;99.90;;;;;;5117076;28;20031;-79
2020/12/06 02:12:26;;;;;;;18.75;9.48;;;3.60;99.90;;;;;;5117619;28;20147;-78
2020/12/06 02:14:52;;;;;;;15.40;8.38;;;3.60;99.90;;;;;;5117448;28;20039;-78
2020/12/06 02:17:18;;;;;;;19.15;9.23;;;3.70;99.90;;;;;;5118626;28;20062;-78
2020/12/06 02:19:43;;;;;;;18.60;8.82;;;3.70;99.90;;;;;;5117405;28;20088;-78
2020/12/06 02:22:10;;;;;;;18.63;9.60;;;3.70;99.90;;;;;;5120118;28;20067;-78
2020/12/06 02:24:35;;;;;;;22.00;9.05;;;3.80;99.90;;;;;;5120088;28;20068;-78
2020/12/06 02:27:01;;;;;;;17.35;9.52;;;3.70;99.90;;;;;;5118214;28;20404;-78
2020/12/06 02:29:27;;;;;;;17.65;9.25;;;3.70;99.90;;;;;;5117470;28;20039;-78
2020/12/06 02:31:52;;;;;;;21.83;9.88;;;3.80;99.90;;;;;;5118169;28;20040;-77
2020/12/06 02:34:18;;;;;;;19.70;9.13;;;3.80;99.90;;;;;;5117351;28;20385;-78
2020/12/06 02:36:43;;;;;;;17.23;9.40;;;3.70;99.90;;;;;;5117304;28;20043;-77
2020/12/06 02:39:11;;;;;;;20.42;10.10;;;3.80;99.90;;;;;;5115361;28;20034;-80
2020/12/06 02:41:39;;;;;;;18.25;9.82;;;3.80;99.90;;;;;;5116796;28;20043;-79
2020/12/06 02:44:05;;;;;;;20.52;10.27;;;3.80;99.90;;;;;;5118300;28;20040;-79
2020/12/06 02:46:32;;;;;;;20.92;10.05;;;3.80;99.90;;;;;;5114571;28;20048;-79
2020/12/06 02:48:57;;;;;;;19.40;9.85;;;3.70;99.90;;;;;;5117298;28;20043;-78
2020/12/06 02:51:23;;;;;;;18.92;9.73;;;3.70;99.90;;;;;;5117251;28;20393;-78
2020/12/06 02:53:49;;;;;;;18.42;10.57;;;3.80;99.90;;;;;;5117464;28;20392;-79
2020/12/06 02:56:15;;;;;;;19.75;9.98;;;3.70;99.90;;;;;;5115573;28;20050;-77
2020/12/06 02:58:41;;;;;;;21.50;11.50;;;3.60;99.90;;;;;;5113893;28;20067;-77
2020/12/06 03:01:06;;;;;;;21.52;11.48;;;3.60;99.90;;;;;;5115359;28;20067;-76
2020/12/06 03:03:32;;;;;;;21.13;11.20;;;3.60;99.90;;;;;;5115303;28;20093;-76
2020/12/06 03:05:57;;;;;;;24.15;11.90;;;3.50;99.90;;;;;;5115688;28;20082;-78
2020/12/06 03:08:23;;;;;;;25.67;12.60;;;3.50;99.90;;;;;;5116098;28;20040;-78
2020/12/06 03:10:49;;;;;;;27.77;13.32;;;3.40;99.90;;;;;;5115417;28;20035;-79
2020/12/06 03:13:15;;;;;;;22.40;12.05;;;3.40;99.90;;;;;;5114258;28;20077;-79
2020/12/06 03:15:41;;;;;;;21.35;11.52;;;3.40;99.90;;;;;;5116370;28;20039;-78
2020/12/06 03:18:06;;;;;;;32.17;13.90;;;3.40;99.90;;;;;;5114895;28;20035;-77
2020/12/06 03:20:32;;;;;;;25.35;12.52;;;3.40;99.90;;;;;;5115412;28;20039;-77
2020/12/06 03:22:59;;;;;;;26.67;12.77;;;3.40;99.90;;;;;;5113995;28;20420;-77
2020/12/06 03:25:25;;;;;;;24.17;12.45;;;3.50;99.90;;;;;;5114988;28;20081;-76
2020/12/06 03:27:50;;;;;;;22.42;11.55;;;3.50;99.90;;;;;;5113754;28;20040;-76
2020/12/06 03:30:17;;;;;;;21.67;11.65;;;3.50;99.90;;;;;;5115040;28;20070;-78
2020/12/06 03:32:42;;;;;;;23.33;11.90;;;3.60;99.90;;;;;;5116226;28;20092;-78
2020/12/06 03:35:08;;;;;;;23.83;11.65;;;3.40;99.90;;;;;;5115256;28;20043;-78
2020/12/06 03:37:34;;;;;;;24.08;11.65;;;3.40;99.90;;;;;;5114849;28;20063;-76
2020/12/06 03:39:59;;;;;;;23.65;13.10;;;3.40;99.90;;;;;;5112864;28;20556;-78
2020/12/06 03:42:25;;;;;;;23.55;12.30;;;3.40;99.90;;;;;;5114850;28;20036;-78
2020/12/06 03:44:50;;;;;;;24.55;12.45;;;3.40;99.90;;;;;;5114552;28;20130;-79
2020/12/06 03:47:17;;;;;;;23.77;11.68;;;3.40;99.90;;;;;;5115638;28;20042;-78
2020/12/06 03:49:43;;;;;;;22.70;11.88;;;3.40;99.90;;;;;;5114615;28;20028;-79
2020/12/06 03:52:08;;;;;;;23.77;12.30;;;3.50;99.90;;;;;;5116702;27;20421;-79
2020/12/06 03:54:34;;;;;;;21.83;11.57;;;3.50;99.90;;;;;;5117186;28;20032;-80
2020/12/06 03:57:00;;;;;;;22.45;12.35;;;3.50;99.90;;;;;;5117457;28;20075;-80
2020/12/06 03:59:25;;;;;;;24.50;12.32;;;3.60;99.90;;;;;;5118184;28;20046;-80
2020/12/06 04:01:51;;;;;;;22.60;11.27;;;3.60;99.90;;;;;;5119221;28;20481;-79
2020/12/06 04:04:17;;;;;;;22.55;11.98;;;3.60;99.90;;;;;;5132694;28;20039;-79
2020/12/06 04:06:43;;;;;;;22.05;11.90;;;3.50;99.90;;;;;;5138793;28;20020;-79
2020/12/06 04:09:08;;;;;;;20.40;11.60;;;3.50;99.90;;;;;;5136542;28;20046;-81
2020/12/06 04:11:34;;;;;;;25.17;12.75;;;3.50;99.90;;;;;;5118067;28;20038;-79
2020/12/06 04:14:00;;;;;;;22.95;12.30;;;3.50;99.90;;;;;;5114449;28;20035;-79
2020/12/06 04:16:25;;;;;;;22.80;12.65;;;3.50;99.90;;;;;;5112999;28;20076;-79
2020/12/06 04:18:51;;;;;;;28.08;13.02;;;3.40;99.90;;;;;;5112577;28;20118;-79
2020/12/06 04:21:17;;;;;;;28.15;13.15;;;3.40;99.90;;;;;;5114114;28;20036;-79
2020/12/06 04:23:43;;;;;;;27.08;14.48;;;3.30;99.90;;;;;;5116897;28;20382;-81
2020/12/06 04:26:08;;;;;;;27.42;13.35;;;3.40;99.90;;;;;;5121644;28;20100;-80
2020/12/06 04:28:34;;;;;;;27.60;14.13;;;3.40;99.90;;;;;;5119287;28;20039;-79
2020/12/06 04:31:00;;;;;;;22.70;12.98;;;3.50;99.90;;;;;;5120972;28;20036;-80
2020/12/06 04:33:25;;;;;;;25.35;13.48;;;3.50;99.90;;;;;;5120664;28;20040;-81
2020/12/06 04:35:51;;;;;;;23.10;11.90;;;3.60;99.90;;;;;;5120337;28;20039;-80
2020/12/06 04:38:18;;;;;;;26.70;13.80;;;3.70;99.90;;;;;;5114359;28;20032;-79
2020/12/06 04:40:43;;;;;;;24.85;13.65;;;3.60;99.90;;;;;;5115504;28;20087;-79
2020/12/06 04:43:09;;;;;;;28.42;15.00;;;3.60;99.90;;;;;;5113183;28;20122;-79
2020/12/06 04:45:35;;;;;;;24.52;13.45;;;3.60;99.90;;;;;;5111896;28;20503;-80
2020/12/06 04:48:04;;;;;;;25.67;13.63;;;3.50;99.90;;;;;;5114383;28;20043;-80
2020/12/06 04:50:32;;;;;;;27.73;13.70;;;3.50;99.90;;;;;;5117756;28;20085;-80
2020/12/06 04:53:00;;;;;;;27.95;14.23;;;3.50;99.90;;;;;;5118255;28;20778;-81
2020/12/06 04:55:28;;;;;;;24.85;14.05;;;3.50;99.90;;;;;;5114428;28;20130;-79
2020/12/06 04:57:56;;;;;;;26.25;14.68;;;3.50;99.90;;;;;;5113951;28;20118;-79
2020/12/06 05:00:30;;;;;;;31.40;14.63;;;3.50;99.90;;;;;;5113037;28;20032;-79
2020/12/06 05:02:58;;;;;;;25.85;14.60;;;3.50;99.90;;;;;;5113973;28;20042;-79
2020/12/06 05:05:33;;;;;;;31.45;15.88;;;3.50;99.90;;;;;;5113927;28;20044;-79
2020/12/06 05:08:02;;;;;;;26.25;13.60;;;3.50;99.90;;;;;;5115027;28;20044;-80
2020/12/06 05:10:30;;;;;;;33.00;15.10;;;3.50;99.90;;;;;;5113480;28;20464;-80
2020/12/06 05:12:55;;;;;;;30.65;15.20;;;3.50;99.90;;;;;;5116157;28;20126;-80
2020/12/06 05:15:21;;;;;;;29.13;14.75;;;3.50;99.90;;;;;;5113072;28;20073;-80
2020/12/06 05:17:47;;;;;;;32.67;14.93;;;3.50;99.90;;;;;;5119746;28;20378;-80
2020/12/06 05:20:12;;;;;;;25.00;14.70;;;3.50;99.90;;;;;;5120125;28;20093;-79
2020/12/06 05:22:45;;;;;;;30.42;14.52;;;3.60;99.90;;;;;;5117461;28;20039;-79
2020/12/06 05:25:11;;;;;;;25.23;14.73;;;3.50;99.90;;;;;;5118368;28;20434;-79
2020/12/06 05:27:38;;;;;;;27.60;15.27;;;3.50;99.90;;;;;;5120462;28;20036;-80
2020/12/06 05:30:04;;;;;;;30.42;16.65;;;3.50;99.90;;;;;;5120721;28;20100;-80
2020/12/06 05:32:29;;;;;;;29.10;15.43;;;3.50;99.90;;;;;;5118249;28;20075;-79
2020/12/06 05:34:55;;;;;;;33.88;17.17;;;3.50;99.90;;;;;;5115781;28;20042;-79
2020/12/06 05:37:20;;;;;;;32.72;16.73;;;3.50;99.90;;;;;;5119162;28;20045;-79
2020/12/06 05:39:46;;;;;;;30.85;15.77;;;3.50;99.90;;;;;;5118124;28;20112;-80
2020/12/06 05:42:11;;;;;;;31.23;17.73;;;3.50;99.90;;;;;;5121321;28;20036;-79
2020/12/06 05:44:38;;;;;;;30.02;16.58;;;3.60;99.90;;;;;;5117520;28;20515;-80
2020/12/06 05:47:12;;;;;;;32.08;16.92;;;3.50;99.90;;;;;;5116752;28;20043;-80
2020/12/06 05:49:38;;;;;;;30.80;16.40;;;3.60;99.90;;;;;;5121373;28;20036;-79
2020/12/06 05:52:03;;;;;;;31.08;16.55;;;3.60;99.90;;;;;;5119815;28;20041;-80
2020/12/06 05:54:30;;;;;;;32.50;16.55;;;3.60;99.90;;;;;;5122131;28;20483;-80
2020/12/06 05:56:57;;;;;;;31.75;16.95;;;3.70;99.90;;;;;;5121480;28;20031;-81
2020/12/06 05:59:23;;;;;;;32.63;16.08;;;3.70;99.90;;;;;;5120542;28;20042;-79
2020/12/06 06:01:52;;;;;;;33.15;16.77;;;3.70;99.90;;;;;;5115441;28;20134;-79
2020/12/06 06:04:20;;;;;;;32.60;17.33;;;3.60;99.90;;;;;;5115411;28;20088;-79
2020/12/06 06:06:47;;;;;;;34.80;17.33;;;3.60;99.90;;;;;;5115274;28;20447;-79
2020/12/06 06:09:15;;;;;;;33.35;17.48;;;3.50;99.90;;;;;;5116401;28;20046;-80
2020/12/06 06:11:50;;;;;;;37.03;17.30;;;3.60;99.90;;;;;;5118770;28;20419;-79
2020/12/06 06:14:16;;;;;;;33.83;16.95;;;3.60;99.90;;;;;;5118398;28;20093;-80
2020/12/06 06:16:42;;;;;;;33.90;17.75;;;3.60;99.90;;;;;;5119544;28;20044;-80
2020/12/06 06:19:08;;;;;;;36.33;17.73;;;3.60;99.90;;;;;;5116684;28;20071;-79
2020/12/06 06:21:37;;;;;;;31.63;16.55;;;3.60;99.90;;;;;;5116431;27;20035;-79
2020/12/06 06:24:07;;;;;;;36.80;17.77;;;3.60;99.90;;;;;;5116642;28;20046;-79
2020/12/06 06:26:35;;;;;;;35.70;18.40;;;3.60;99.90;;;;;;5115085;28;20036;-79
2020/12/06 06:29:01;;;;;;;37.20;17.63;;;3.50;99.90;;;;;;5115018;28;20066;-79
2020/12/06 06:31:30;;;;;;;33.60;17.25;;;3.50;99.90;;;;;;5116262;28;20393;-79
2020/12/06 06:33:56;;;;;;;35.58;18.23;;;3.50;99.90;;;;;;5116193;28;20118;-79
2020/12/06 06:36:22;;;;;;;38.28;18.40;;;3.50;99.90;;;;;;5114872;28;20059;-79
2020/12/06 06:38:50;;;;;;;36.92;17.70;;;3.50;99.90;;;;;;5115671;28;20051;-79
2020/12/06 06:41:15;;;;;;;39.80;19.63;;;3.50;99.90;;;;;;5115113;28;20036;-79
2020/12/06 06:43:42;;;;;;;37.85;19.05;;;3.60;99.90;;;;;;5114703;28;20499;-79
2020/12/06 06:46:10;;;;;;;40.58;18.40;;;3.60;99.90;;;;;;5113281;28;20039;-79
2020/12/06 06:48:36;;;;;;;31.67;17.00;;;3.50;99.90;;;;;;5114312;28;20046;-79
2020/12/06 06:51:01;;;;;;;36.03;18.02;;;3.50;99.90;;;;;;5115267;28;20032;-80
2020/12/06 06:53:28;;;;;;;39.20;17.83;;;3.50;99.90;;;;;;5114431;28;20138;-80
2020/12/06 06:55:54;;;;;;;34.85;17.45;;;3.50;99.90;;;;;;5115462;28;20050;-80
2020/12/06 06:58:23;;;;;;;40.20;18.55;;;3.40;99.90;;;;;;5115646;28;20032;-80
2020/12/06 07:00:49;;;;;;;38.35;17.55;;;3.40;99.90;;;;;;5114336;28;20150;-80
2020/12/06 07:03:17;;;;;;;34.45;15.93;;;3.40;99.90;;;;;;5114188;28;20043;-79
2020/12/06 07:05:43;;;;;;;32.90;16.60;;;3.40;99.90;;;;;;5115425;28;20059;-79
2020/12/06 07:08:15;;;;;;;31.88;16.65;;;3.40;99.90;;;;;;5115273;28;20078;-79
2020/12/06 07:10:42;;;;;;;35.80;17.33;;;3.40;99.90;;;;;;5114694;28;20036;-79
2020/12/06 07:13:08;;;;;;;33.25;16.48;;;3.50;99.90;;;;;;5114051;28;20070;-79
2020/12/06 07:15:34;;;;;;;36.78;17.40;;;3.40;99.90;;;;;;5113982;28;20489;-79
2020/12/06 07:18:01;;;;;;;33.63;17.40;;;3.40;99.90;;;;;;5115116;28;20042;-79
2020/12/06 07:20:27;;;;;;;36.13;17.27;;;3.40;99.90;;;;;;5113099;28;20040;-79
2020/12/06 07:22:54;;;;;;;35.72;16.75;;;3.40;99.90;;;;;;5113731;28;20036;-79
2020/12/06 07:25:21;;;;;;;35.58;17.77;;;3.50;99.90;;;;;;5115055;28;20036;-80
2020/12/06 07:27:48;;;;;;;36.97;17.38;;;3.50;99.90;;;;;;5115114;28;20039;-79
2020/12/06 07:30:15;;;;;;;35.65;16.83;;;3.50;99.90;;;;;;5114245;28;20412;-79
2020/12/06 07:32:41;;;;;;;33.78;16.58;;;3.40;99.90;;;;;;5114853;28;20040;-79
2020/12/06 07:35:08;;;;;;;34.10;17.10;;;3.40;99.90;;;;;;5114753;28;20040;-79
2020/12/06 07:37:34;;;;;;;34.53;17.17;;;3.40;99.90;;;;;;5113490;28;20035;-79
2020/12/06 07:40:04;;;;;;;33.95;17.65;;;3.40;99.90;;;;;;5111892;28;20070;-79
2020/12/06 07:42:30;;;;;;;38.22;18.38;;;3.40;99.90;;;;;;5114723;28;20075;-80
2020/12/06 07:44:58;;;;;;;35.75;17.55;;;3.40;99.90;;;;;;5113450;28;20059;-80
2020/12/06 07:47:24;;;;;;;33.40;17.67;;;3.40;99.90;;;;;;5113434;28;20044;-78
2020/12/06 07:49:51;;;;;;;36.88;18.33;;;3.40;99.90;;;;;;5114017;28;20077;-79
2020/12/06 07:52:18;;;;;;;36.03;17.38;;;3.40;99.90;;;;;;5113226;28;20067;-80
2020/12/06 07:54:59;;;;;;;37.67;18.52;;;3.40;99.90;;;;;;5113034;28;20069;-80
2020/12/06 07:57:30;;;;;;;36.00;16.88;;;3.30;99.90;;;;;;5113152;28;20057;-80
2020/12/06 07:59:58;;;;;;;35.17;17.67;;;3.30;99.90;;;;;;5112531;28;20032;-80
2020/12/06 08:02:24;;;;;;;34.95;17.42;;;3.30;99.90;;;;;;5113105;28;20043;-80
2020/12/06 08:04:52;;;;;;;38.83;17.58;;;3.30;99.90;;;;;;5114291;28;20042;-80
2020/12/06 08:07:22;;;;;;;36.88;17.48;;;3.30;99.90;;;;;;5114244;28;20036;-80
2020/12/06 08:09:48;;;;;;;38.17;16.90;;;3.40;99.90;;;;;;5114031;28;20472;-80
2020/12/06 08:12:16;;;;;;;35.55;18.42;;;3.30;99.90;;;;;;5112924;28;20032;-80
2020/12/06 08:14:42;;;;;;;35.78;18.60;;;3.30;99.90;;;;;;5112936;28;20051;-80
2020/12/06 08:17:08;;;;;;;39.88;18.48;;;3.30;99.90;;;;;;5114038;27;20036;-80
2020/12/06 08:19:34;;;;;;;39.38;17.77;;;3.30;99.90;;;;;;5113356;28;20067;-79
2020/12/06 08:22:02;;;;;;;36.25;18.23;;;3.40;99.90;;;;;;5112792;28;20039;-78
2020/12/06 08:24:29;;;;;;;41.67;18.75;;;3.40;99.90;;;;;;5114077;28;20428;-80
2020/12/06 08:26:56;;;;;;;34.13;18.13;;;3.40;99.90;;;;;;5114090;28;20477;-79
2020/12/06 08:29:37;;;;;;;41.30;18.08;;;3.40;99.90;;;;;;5112276;28;20055;-79
2020/12/06 08:32:03;;;;;;;37.88;17.70;;;3.40;99.90;;;;;;5112747;28;20035;-80
2020/12/06 08:34:30;;;;;;;35.30;17.33;;;3.40;99.90;;;;;;5113405;28;20082;-79
2020/12/06 08:37:11;;;;;;;34.33;18.15;;;3.40;99.90;;;;;;5113070;28;20040;-79
2020/12/06 08:39:36;;;;;;;39.85;18.00;;;3.40;99.90;;;;;;5113466;28;20126;-79
2020/12/06 08:42:12;;;;;;;39.03;18.17;;;3.40;99.90;;;;;;5114381;28;20127;-80
2020/12/06 08:44:59;;;;;;;35.50;16.52;;;3.40;99.90;;;;;;5113321;28;20043;-80
2020/12/06 08:47:26;;;;;;;34.17;15.85;;;3.40;99.90;;;;;;5112634;28;20036;-79
2020/12/06 08:50:06;;;;;;;34.13;16.88;;;3.30;99.90;;;;;;5113411;28;20489;-79
2020/12/06 08:52:32;;;;;;;42.53;18.15;;;3.30;99.90;;;;;;5117000;28;20055;-79
2020/12/06 08:54:58;;;;;;;41.45;17.33;;;3.30;99.90;;;;;;5116792;28;20049;-80
2020/12/06 08:57:25;;;;;;;38.53;19.33;;;3.30;99.90;;;;;;5117843;28;20118;-80
2020/12/06 08:59:51;;;;;;;43.40;19.00;;;3.40;99.90;;;;;;5116002;28;20404;-80
2020/12/06 09:02:22;;;;;;;44.78;20.30;;;3.40;99.90;;;;;;5116502;28;20051;-80
2020/12/06 09:04:47;;;;;;;36.08;18.48;;;3.40;99.90;;;;;;5116633;28;20035;-80
2020/12/06 09:07:14;;;;;;;35.72;17.83;;;3.40;99.90;;;;;;5116813;28;20473;-80
2020/12/06 09:09:39;;;;;;;40.72;19.08;;;3.40;99.90;;;;;;5130944;28;20043;-81
2020/12/06 09:12:05;;;;;;;40.20;19.05;;;3.40;99.90;;;;;;5130075;28;20102;-81
2020/12/06 09:14:30;;;;;;;40.70;18.88;;;3.30;99.90;;;;;;5130077;28;20040;-80
2020/12/06 09:16:56;;;;;;;43.30;19.65;;;3.40;99.90;;;;;;5117337;28;20064;-80
2020/12/06 09:19:22;;;;;;;43.58;20.58;;;3.40;99.90;;;;;;5117847;28;20043;-79
2020/12/06 09:21:47;;;;;;;44.58;19.60;;;3.40;99.90;;;;;;5116598;28;20034;-80
2020/12/06 09:24:14;;;;;;;49.33;21.17;;;3.40;99.90;;;;;;5116496;28;20514;-80
2020/12/06 09:26:39;;;;;;;42.33;20.40;;;3.40;99.90;;;;;;5117265;28;20046;-80
2020/12/06 09:29:05;;;;;;;43.67;19.42;;;3.50;99.90;;;;;;5116181;28;20035;-80
2020/12/06 09:31:31;;;;;;;46.80;20.15;;;3.40;99.90;;;;;;5117884;28;20036;-80
2020/12/06 09:33:56;;;;;;;52.00;20.92;;;3.40;99.90;;;;;;5117745;28;20115;-80
2020/12/06 09:36:22;;;;;;;46.80;21.30;;;3.40;99.90;;;;;;5116586;28;20405;-80
2020/12/06 09:38:48;;;;;;;45.40;20.67;;;3.40;99.90;;;;;;5117247;28;20114;-80
2020/12/06 09:41:15;;;;;;;53.92;20.85;;;3.20;99.90;;;;;;5116039;28;20028;-80
2020/12/06 09:43:42;;;;;;;50.20;22.75;;;3.40;99.90;;;;;;5117626;28;20051;-79
2020/12/06 09:46:08;;;;;;;69.90;31.73;;;3.40;99.90;;;;;;5115618;28;20047;-79
2020/12/06 09:48:34;;;;;;;61.00;25.75;;;3.40;99.90;;;;;;5116266;28;20093;-81
2020/12/06 09:50:59;;;;;;;52.63;23.73;;;3.40;99.90;;;;;;5117189;28;20035;-80
2020/12/06 09:53:25;;;;;;;53.05;22.58;;;3.40;99.90;;;;;;5115871;28;20423;-79
2020/12/06 09:55:50;;;;;;;56.03;24.60;;;3.50;99.90;;;;;;5115880;28;20126;-79
2020/12/06 09:58:17;;;;;;;58.40;24.70;;;3.40;99.90;;;;;;5117178;28;20038;-80
2020/12/06 10:00:43;;;;;;;51.42;23.27;;;3.40;99.90;;;;;;5115763;28;20036;-80
2020/12/06 10:03:08;;;;;;;50.33;21.00;;;3.40;99.90;;;;;;5114781;28;20051;-79
2020/12/06 10:05:34;;;;;;;57.97;24.20;;;3.50;99.90;;;;;;5117131;28;20067;-79
2020/12/06 10:08:00;;;;;;;58.80;25.08;;;3.40;99.90;;;;;;5115879;28;20074;-79
2020/12/06 10:10:25;;;;;;;51.83;23.50;;;3.40;99.90;;;;;;5116597;28;20066;-79
2020/12/06 10:12:51;;;;;;;60.97;24.25;;;3.40;99.90;;;;;;5116857;28;20049;-79
2020/12/06 10:15:17;;;;;;;57.38;25.67;;;3.40;99.90;;;;;;5115714;28;20085;-79
2020/12/06 10:17:43;;;;;;;55.67;24.25;;;3.40;99.90;;;;;;5115538;28;20048;-78
2020/12/06 10:20:08;;;;;;;51.75;24.98;;;3.50;99.90;;;;;;5115628;28;20044;-79
2020/12/06 10:22:34;;;;;;;59.08;24.08;;;3.60;99.90;;;;;;5117078;28;20495;-79
2020/12/06 10:25:00;;;;;;;52.70;24.52;;;3.60;99.90;;;;;;5116690;27;20047;-79
2020/12/06 10:27:26;;;;;;;51.75;24.13;;;3.60;99.90;;;;;;5116784;28;20113;-79
2020/12/06 10:29:52;;;;;;;57.88;25.25;;;3.60;99.90;;;;;;5115856;28;20118;-79
2020/12/06 10:32:18;;;;;;;53.75;25.20;;;3.60;99.90;;;;;;5115145;28;20114;-79
2020/12/06 10:34:44;;;;;;;52.30;24.00;;;3.50;99.90;;;;;;5116769;28;20370;-79
2020/12/06 10:37:10;;;;;;;52.95;23.15;;;3.50;99.90;;;;;;5116547;28;20190;-79
2020/12/06 10:39:35;;;;;;;55.80;24.67;;;3.50;99.90;;;;;;5115972;28;20041;-80
2020/12/06 10:42:01;;;;;;;58.60;24.90;;;3.50;99.90;;;;;;5115552;28;20058;-77
2020/12/06 10:44:26;;;;;;;55.03;23.80;;;3.50;99.90;;;;;;5116000;28;20100;-79
2020/12/06 10:46:53;;;;;;;57.17;23.88;;;3.50;99.90;;;;;;5114079;28;20043;-79
2020/12/06 10:49:20;;;;;;;61.50;26.52;;;3.50;99.90;;;;;;5115413;27;20039;-79
2020/12/06 10:51:49;;;;;;;55.38;26.67;;;3.50;99.90;;;;;;5116133;28;20032;-79
2020/12/06 10:54:15;;;;;;;56.47;25.50;;;3.50;99.90;;;;;;5115260;28;20039;-77
2020/12/06 10:56:42;;;;;;;56.92;24.10;;;3.50;99.90;;;;;;5116151;28;20071;-79
2020/12/06 10:59:08;;;;;;;61.17;24.48;;;3.50;99.90;;;;;;5115269;28;20036;-77
2020/12/06 11:01:34;;;;;;;60.38;24.25;;;3.50;99.90;;;;;;5115924;28;20052;-79
2020/12/06 11:04:02;;;;;;;55.90;24.08;;;3.50;99.90;;;;;;5114754;28;20042;-79
2020/12/06 11:06:28;;;;;;;51.47;23.20;;;3.40;99.90;;;;;;5116197;27;20520;-80
2020/12/06 11:08:54;;;;;;;57.08;24.45;;;3.40;99.90;;;;;;5115463;28;20043;-79
2020/12/06 11:11:21;;;;;;;57.97;25.25;;;3.40;99.90;;;;;;5115789;28;20058;-79
2020/12/06 11:13:48;;;;;;;56.33;24.95;;;3.40;99.90;;;;;;5115523;28;20104;-79
2020/12/06 11:16:15;;;;;;;51.35;23.60;;;3.50;99.90;;;;;;5114275;28;20038;-77
2020/12/06 11:18:40;;;;;;;60.70;24.70;;;3.50;99.90;;;;;;5113947;28;20096;-79
2020/12/06 11:21:06;;;;;;;56.40;23.05;;;3.60;99.90;;;;;;5115227;28;20032;-79
2020/12/06 11:23:32;;;;;;;55.25;23.80;;;3.60;99.90;;;;;;5115502;28;20398;-79
2020/12/06 11:25:58;;;;;;;56.40;23.48;;;3.50;99.90;;;;;;5114173;28;20047;-77
2020/12/06 11:28:24;;;;;;;59.33;24.90;;;3.50;99.90;;;;;;5113772;28;20043;-79
2020/12/06 11:30:50;;;;;;;57.22;23.35;;;3.50;99.90;;;;;;5114612;28;20035;-78
2020/12/06 11:33:15;;;;;;;55.53;24.92;;;3.50;99.90;;;;;;5115097;28;20073;-79
2020/12/06 11:35:42;;;;;;;58.00;25.08;;;3.50;99.90;;;;;;5113905;28;20043;-79
2020/12/06 11:38:08;;;;;;;56.42;24.05;;;3.50;99.90;;;;;;5114978;28;20489;-79
2020/12/06 11:40:34;;;;;;;51.95;23.38;;;3.60;99.90;;;;;;5113133;28;20043;-79
2020/12/06 11:43:00;;;;;;;55.40;24.58;;;3.60;99.90;;;;;;5113538;28;20047;-79
2020/12/06 11:45:26;;;;;;;57.42;24.10;;;3.60;99.90;;;;;;5115268;28;20130;-80
2020/12/06 11:47:52;;;;;;;55.47;24.50;;;3.70;99.90;;;;;;5115121;28;20050;-79
2020/12/06 11:50:18;;;;;;;58.63;23.77;;;3.70;99.90;;;;;;5113015;28;20378;-79
2020/12/06 11:52:43;;;;;;;56.67;24.33;;;3.70;99.90;;;;;;5113337;28;20122;-78
2020/12/06 11:55:10;;;;;;;59.40;25.35;;;3.70;99.90;;;;;;5092852;28;20105;-79
2020/12/06 11:57:37;;;;;;;54.42;24.92;;;3.70;99.90;;;;;;5092392;28;20060;-79
2020/12/06 12:00:05;;;;;;;60.55;24.83;;;3.70;99.90;;;;;;5093604;28;20090;-79
2020/12/06 12:02:31;;;;;;;51.92;23.25;;;3.70;99.90;;;;;;5092900;28;20040;-79
2020/12/06 12:04:56;;;;;;;56.75;24.08;;;3.60;99.90;;;;;;5092906;28;20036;-79
2020/12/06 12:07:22;;;;;;;59.28;25.42;;;3.70;99.90;;;;;;5094407;28;20367;-79
2020/12/06 12:09:47;;;;;;;62.20;27.20;;;3.70;99.90;;;;;;5092339;28;20039;-79
2020/12/06 12:12:13;;;;;;;54.25;25.17;;;3.70;99.90;;;;;;5094071;28;20040;-79
2020/12/06 12:14:40;;;;;;;65.38;26.67;;;3.70;99.90;;;;;;5093925;28;20043;-80
2020/12/06 12:17:05;;;;;;;59.00;24.95;;;3.80;99.90;;;;;;5094503;28;20044;-79
2020/12/06 12:19:31;;;;;;;56.60;25.20;;;3.80;99.90;;;;;;5093505;28;20123;-79
2020/12/06 12:21:57;;;;;;;59.72;25.35;;;3.80;99.90;;;;;;5092744;28;20443;-80
2020/12/06 12:24:22;;;;;;;66.70;25.33;;;3.80;99.90;;;;;;5093179;28;20089;-79
2020/12/06 12:26:48;;;;;;;57.03;25.00;;;3.80;99.90;;;;;;5093636;28;20497;-80
2020/12/06 12:29:13;;;;;;;62.90;25.10;;;3.80;99.90;;;;;;5094226;28;20032;-80
2020/12/06 12:31:44;;;;;;;55.50;24.13;;;3.80;99.90;;;;;;5094033;28;20553;-79
2020/12/06 12:34:09;;;;;;;60.65;25.38;;;3.90;99.90;;;;;;5092571;28;20044;-79